Time;durP1;ratioP1;P1;durP2;ratioP2;P2;SDS_P1;SDS_P2;PMS_P1;PMS_P2;Temp;Humidity;BMP_temperature;BMP_pressure;BME280_temperature;BME280_humidity;BME280_pressure;Samples;Min_cycle;Max_cycle;Signal;HPM_P1;HPM_P2
2021/10/10 00:01:04;;;;;;;;;;;14.30;99.90;;;;;;5095046;28;19924;-75
2021/10/10 00:03:31;;;;;;;;;;;14.30;99.90;;;;;;5095119;28;19924;-76
2021/10/10 00:05:59;;;;;;;;;;;14.30;99.90;;;;;;5095039;28;19924;-77
2021/10/10 00:08:26;;;;;;;;;;;14.30;99.90;;;;;;5095245;28;19923;-78
2021/10/10 00:10:53;;;;;;;;;;;14.30;99.90;;;;;;5095063;28;20349;-77
2021/10/10 00:13:19;;;;;;;;;;;14.30;99.90;;;;;;5094981;28;19924;-77
2021/10/10 00:15:46;;;;;;;;;;;14.30;99.90;;;;;;5094965;28;19924;-77
2021/10/10 00:18:13;;;;;;;;;;;14.30;99.90;;;;;;5094813;28;20380;-77
2021/10/10 00:20:40;;;;;;;;;;;14.30;99.90;;;;;;5094903;28;19924;-77
2021/10/10 00:23:08;;;;;;;;;;;14.30;99.90;;;;;;5094726;28;19934;-76
2021/10/10 00:25:35;;;;;;;;;;;14.30;99.90;;;;;;5094966;28;19924;-77
2021/10/10 00:28:02;;;;;;;;;;;14.30;99.90;;;;;;5094990;28;19928;-77
2021/10/10 00:30:29;;;;;;;;;;;14.30;99.90;;;;;;5095010;28;19924;-78
2021/10/10 00:32:57;;;;;;;;;;;14.30;99.90;;;;;;5094889;28;19946;-77
2021/10/10 00:35:24;;;;;;;;;;;14.30;99.90;;;;;;5094740;28;19924;-80
2021/10/10 00:37:51;;;;;;;;;;;14.30;99.90;;;;;;5095043;28;19930;-76
2021/10/10 00:40:19;;;;;;;;;;;14.30;99.90;;;;;;5095123;28;19935;-79
2021/10/10 00:42:46;;;;;;;;;;;14.30;99.90;;;;;;5094741;28;20374;-78
2021/10/10 00:45:13;;;;;;;;;;;14.30;99.90;;;;;;5094672;28;19924;-77
2021/10/10 00:47:41;;;;;;;;;;;14.30;99.90;;;;;;5094693;28;19931;-78
2021/10/10 00:50:09;;;;;;;;;;;14.30;99.90;;;;;;5094714;28;20366;-76
2021/10/10 00:52:37;;;;;;;;;;;14.30;99.90;;;;;;5094585;28;19928;-76
2021/10/10 00:55:04;;;;;;;;;;;14.30;99.90;;;;;;5094296;28;19934;-77
2021/10/10 00:57:33;;;;;;;;;;;14.30;99.90;;;;;;5094730;28;19924;-76
2021/10/10 00:59:59;;;;;;;;;;;14.30;99.90;;;;;;5094595;28;19924;-76
2021/10/10 01:02:27;;;;;;;;;;;14.30;99.90;;;;;;5095512;28;19985;-79
2021/10/10 01:04:54;;;;;;;;;;;14.30;99.90;;;;;;5098252;28;19989;-78
2021/10/10 01:07:20;;;;;;;;;;;14.30;99.90;;;;;;5098518;28;19934;-78
2021/10/10 01:09:47;;;;;;;;;;;14.20;99.90;;;;;;5098202;28;20348;-77
2021/10/10 01:12:14;;;;;;;;;;;14.20;99.90;;;;;;5098153;28;19924;-85
2021/10/10 01:14:42;;;;;;;;;;;14.30;99.90;;;;;;5098169;28;20023;-84
2021/10/10 01:17:09;;;;;;;;;;;14.20;99.90;;;;;;5098028;28;19978;-84
2021/10/10 01:19:36;;;;;;;;;;;14.20;99.90;;;;;;5097764;28;19934;-84
2021/10/10 01:22:05;;;;;;;;;;;14.20;99.90;;;;;;5097982;28;19928;-84
2021/10/10 01:24:31;;;;;;;;;;;14.20;99.90;;;;;;5097908;28;19924;-84
2021/10/10 01:26:58;;;;;;;;;;;14.20;99.90;;;;;;5097989;28;19924;-84
2021/10/10 01:29:25;;;;;;;;;;;14.10;99.90;;;;;;5097829;28;20279;-84
2021/10/10 01:31:52;;;;;;;;;;;14.10;99.90;;;;;;5096523;28;19924;-84
2021/10/10 01:34:19;;;;;;;;;;;14.10;99.90;;;;;;5097357;28;19924;-84
2021/10/10 01:36:45;;;;;;;;;;;14.10;99.90;;;;;;5097871;28;19930;-85
2021/10/10 01:39:14;;;;;;;;;;;14.00;99.90;;;;;;5097542;28;19950;-84
2021/10/10 01:41:41;;;;;;;;;;;14.00;99.90;;;;;;5097567;28;20261;-84
2021/10/10 01:44:12;;;;;;;;;;;14.00;99.90;;;;;;5097443;28;19924;-84
2021/10/10 01:46:39;;;;;;;;;;;14.00;99.90;;;;;;5097556;28;19993;-84
2021/10/10 01:49:06;;;;;;;;;;;14.00;99.90;;;;;;5097459;28;19934;-85
2021/10/10 01:51:33;;;;;;;;;;;14.00;99.90;;;;;;5097602;28;19943;-85
2021/10/10 01:53:59;;;;;;;;;;;14.00;99.90;;;;;;5096983;28;20275;-84
2021/10/10 01:56:28;;;;;;;;;;;14.00;99.90;;;;;;5097198;28;20364;-83
2021/10/10 01:58:55;;;;;;;;;;;14.00;99.90;;;;;;5096257;28;20341;-84
2021/10/10 02:01:21;;;;;;;;;;;14.00;99.90;;;;;;5097107;28;19924;-84
2021/10/10 02:03:48;;;;;;;;;;;14.00;99.90;;;;;;5097232;28;19924;-84
2021/10/10 02:06:15;;;;;;;;;;;14.00;99.90;;;;;;5097206;28;19977;-83
2021/10/10 02:08:42;;;;;;;;;;;14.00;99.90;;;;;;5097204;28;19928;-84
2021/10/10 02:11:09;;;;;;;;;;;13.90;99.90;;;;;;5097056;28;20371;-84
2021/10/10 02:13:37;;;;;;;;;;;13.90;99.90;;;;;;5096856;28;19931;-83
2021/10/10 02:16:04;;;;;;;;;;;13.80;99.90;;;;;;5097060;28;19924;-83
2021/10/10 02:18:31;;;;;;;;;;;13.80;99.90;;;;;;5096680;28;19924;-84
2021/10/10 02:20:58;;;;;;;;;;;13.80;99.90;;;;;;5096795;28;19924;-84
2021/10/10 02:23:24;;;;;;;;;;;13.70;99.90;;;;;;5096694;28;19924;-84
2021/10/10 02:25:51;;;;;;;;;;;13.60;99.90;;;;;;5096733;28;19924;-84
2021/10/10 02:28:18;;;;;;;;;;;13.60;99.90;;;;;;5096582;28;19946;-84
2021/10/10 02:30:47;;;;;;;;;;;13.60;99.90;;;;;;5096800;28;20259;-84
2021/10/10 02:33:14;;;;;;;;;;;13.50;99.90;;;;;;5096563;28;19924;-84
2021/10/10 02:35:41;;;;;;;;;;;13.50;99.90;;;;;;5096627;28;19924;-85
2021/10/10 02:38:08;;;;;;;;;;;13.40;99.90;;;;;;5096467;28;19931;-86
2021/10/10 02:40:35;;;;;;;;;;;13.30;99.90;;;;;;5096428;28;19924;-86
2021/10/10 02:43:02;;;;;;;;;;;13.30;99.90;;;;;;5096286;28;19924;-86
2021/10/10 02:45:28;;;;;;;;;;;13.30;99.90;;;;;;5096506;28;19935;-86
2021/10/10 02:47:57;;;;;;;;;;;13.20;99.90;;;;;;5096332;28;20362;-86
2021/10/10 02:50:24;;;;;;;;;;;13.20;99.90;;;;;;5096470;28;19939;-86
2021/10/10 02:52:50;;;;;;;;;;;13.10;99.90;;;;;;5096340;28;19924;-86
2021/10/10 02:55:17;;;;;;;;;;;13.10;99.90;;;;;;5095709;28;19990;-82
2021/10/10 02:57:44;;;;;;;;;;;13.00;99.90;;;;;;5095990;28;20256;-86
2021/10/10 03:00:11;;;;;;;;;;;13.00;99.90;;;;;;5092565;28;19924;-86
2021/10/10 03:02:38;;;;;;;;;;;12.90;99.90;;;;;;5089466;28;19924;-86
2021/10/10 03:05:07;;;;;;;;;;;12.90;99.90;;;;;;5094128;28;19924;-86
2021/10/10 03:07:33;;;;;;;;;;;12.90;99.90;;;;;;5095801;28;20356;-87
2021/10/10 03:10:00;;;;;;;;;;;12.80;99.90;;;;;;5095854;28;19924;-86
2021/10/10 03:12:27;;;;;;;;;;;12.80;99.90;;;;;;5095811;28;19924;-86
2021/10/10 03:14:54;;;;;;;;;;;12.70;99.90;;;;;;5095783;28;19924;-87
2021/10/10 03:17:21;;;;;;;;;;;12.70;99.90;;;;;;5095882;28;19924;-87
2021/10/10 03:19:48;;;;;;;;;;;12.70;99.90;;;;;;5095640;28;20237;-85
2021/10/10 03:22:16;;;;;;;;;;;12.70;99.90;;;;;;5095709;28;19950;-86
2021/10/10 03:24:43;;;;;;;;;;;12.70;99.90;;;;;;5095231;28;19934;-85
2021/10/10 03:27:10;;;;;;;;;;;12.60;99.90;;;;;;5095436;28;19970;-86
2021/10/10 03:29:36;;;;;;;;;;;12.60;99.90;;;;;;5095374;28;19924;-86
2021/10/10 03:32:03;;;;;;;;;;;12.60;99.90;;;;;;5095598;28;19942;-85
2021/10/10 03:34:33;;;;;;;;;;;12.60;99.90;;;;;;5095580;28;19924;-86
2021/10/10 03:37:00;;;;;;;;;;;12.60;99.90;;;;;;5095356;28;19934;-86
2021/10/10 03:39:28;;;;;;;;;;;12.60;99.90;;;;;;5095308;28;19935;-86
2021/10/10 03:41:55;;;;;;;;;;;12.60;99.90;;;;;;5095281;28;20301;-86
2021/10/10 03:44:22;;;;;;;;;;;12.70;99.90;;;;;;5095276;28;20267;-86
2021/10/10 03:46:49;;;;;;;;;;;12.70;99.90;;;;;;5095252;28;19930;-85
2021/10/10 03:49:15;;;;;;;;;;;12.70;99.90;;;;;;5095309;28;19936;-86
2021/10/10 03:51:42;;;;;;;;;;;12.70;99.90;;;;;;5095245;28;19924;-87
2021/10/10 03:56:55;;;;;;;;;;;12.80;99.90;;;;;;5095291;28;20066;-87
2021/10/10 03:59:23;;;;;;;;;;;12.80;99.90;;;;;;5095057;28;19928;-86
2021/10/10 04:01:50;;;;;;;;;;;12.80;99.90;;;;;;5095118;28;19923;-87
2021/10/10 04:04:17;;;;;;;;;;;12.80;99.90;;;;;;5095096;28;19924;-86
2021/10/10 04:06:44;;;;;;;;;;;12.90;99.90;;;;;;5094931;28;20252;-87
2021/10/10 04:09:11;;;;;;;;;;;12.90;99.90;;;;;;5095247;28;19935;-86
2021/10/10 04:11:38;;;;;;;;;;;12.90;99.90;;;;;;5095259;28;20019;-86
2021/10/10 04:14:06;;;;;;;;;;;12.90;99.90;;;;;;5095152;28;19954;-87
2021/10/10 04:16:33;;;;;;;;;;;12.90;99.90;;;;;;5095081;28;19928;-87
2021/10/10 04:19:00;;;;;;;;;;;12.90;99.90;;;;;;5094879;28;20336;-86
2021/10/10 04:21:26;;;;;;;;;;;12.90;99.90;;;;;;5094951;28;20347;-86
2021/10/10 04:23:53;;;;;;;;;;;13.00;99.90;;;;;;5094739;28;19924;-86
2021/10/10 04:26:20;;;;;;;;;;;12.90;99.90;;;;;;5095141;28;19930;-87
2021/10/10 04:28:47;;;;;;;;;;;12.90;99.90;;;;;;5094876;28;19930;-86
2021/10/10 04:31:15;;;;;;;;;;;13.00;99.90;;;;;;5094950;28;19924;-86
2021/10/10 04:33:42;;;;;;;;;;;13.00;99.90;;;;;;5094710;28;19924;-86
2021/10/10 04:36:09;;;;;;;;;;;13.00;99.90;;;;;;5095136;28;19924;-85
2021/10/10 04:38:36;;;;;;;;;;;13.00;99.90;;;;;;5097627;28;19928;-86
2021/10/10 04:41:02;;;;;;;;;;;13.00;99.90;;;;;;5098722;28;19928;-85
2021/10/10 04:43:29;;;;;;;;;;;13.00;99.90;;;;;;5098651;28;19934;-86
2021/10/10 04:45:56;;;;;;;;;;;13.00;99.90;;;;;;5098646;28;19950;-85
2021/10/10 04:48:24;;;;;;;;;;;13.00;99.90;;;;;;5098558;28;20352;-86
2021/10/10 04:50:51;;;;;;;;;;;13.00;99.90;;;;;;5098448;28;19934;-86
2021/10/10 04:53:18;;;;;;;;;;;13.10;99.90;;;;;;5098684;28;19924;-86
2021/10/10 04:55:45;;;;;;;;;;;13.10;99.90;;;;;;5098051;28;20367;-86
2021/10/10 04:58:12;;;;;;;;;;;13.00;99.90;;;;;;5098418;28;20257;-85
2021/10/10 05:00:38;;;;;;;;;;;13.10;99.90;;;;;;5098239;28;19924;-86
2021/10/10 05:03:05;;;;;;;;;;;13.10;99.90;;;;;;5098199;28;19924;-85
2021/10/10 05:05:34;;;;;;;;;;;13.10;99.90;;;;;;5098506;28;19925;-86
2021/10/10 05:08:00;;;;;;;;;;;13.10;99.90;;;;;;5098391;28;20300;-86
2021/10/10 05:10:27;;;;;;;;;;;13.10;99.90;;;;;;5098160;28;19931;-85
2021/10/10 05:12:54;;;;;;;;;;;13.10;99.90;;;;;;5098069;28;20013;-85
2021/10/10 05:15:22;;;;;;;;;;;13.20;99.90;;;;;;5098055;28;19924;-85
2021/10/10 05:17:49;;;;;;;;;;;13.10;99.90;;;;;;5098051;28;19932;-85
2021/10/10 05:20:16;;;;;;;;;;;13.10;99.90;;;;;;5098129;28;19944;-85
2021/10/10 05:22:44;;;;;;;;;;;13.10;99.90;;;;;;5098097;28;19934;-85
2021/10/10 05:25:11;;;;;;;;;;;13.10;99.90;;;;;;5097924;28;19924;-85
2021/10/10 05:27:37;;;;;;;;;;;13.10;99.90;;;;;;5097934;28;20019;-85
2021/10/10 05:30:05;;;;;;;;;;;13.20;99.90;;;;;;5097757;28;19935;-85
2021/10/10 05:32:31;;;;;;;;;;;13.10;99.90;;;;;;5097705;28;20336;-85
2021/10/10 05:34:58;;;;;;;;;;;13.10;99.90;;;;;;5097818;28;19924;-84
2021/10/10 05:37:25;;;;;;;;;;;13.10;99.90;;;;;;5097774;28;19924;-84
2021/10/10 05:39:53;;;;;;;;;;;13.10;99.90;;;;;;5097531;28;19931;-85
2021/10/10 05:42:20;;;;;;;;;;;13.20;99.90;;;;;;5097577;28;19931;-85
2021/10/10 05:44:47;;;;;;;;;;;13.10;99.90;;;;;;5097449;28;19924;-85
2021/10/10 05:47:14;;;;;;;;;;;13.10;99.90;;;;;;5097429;28;20374;-84
2021/10/10 05:49:41;;;;;;;;;;;13.10;99.90;;;;;;5097116;28;19931;-86
2021/10/10 05:52:08;;;;;;;;;;;13.10;99.90;;;;;;5097496;28;19934;-85
2021/10/10 05:54:36;;;;;;;;;;;13.10;99.90;;;;;;5096882;28;20241;-85
2021/10/10 05:57:06;;;;;;;;;;;13.10;99.90;;;;;;5097333;28;19939;-84
2021/10/10 05:59:34;;;;;;;;;;;13.10;99.90;;;;;;5097150;28;19935;-85
2021/10/10 06:02:01;;;;;;;;;;;13.10;99.90;;;;;;5097255;28;19931;-86
2021/10/10 06:04:28;;;;;;;;;;;13.10;99.90;;;;;;5097022;28;19934;-86
2021/10/10 06:06:55;;;;;;;;;;;13.00;99.90;;;;;;5097363;28;20324;-86
2021/10/10 06:09:21;;;;;;;;;;;13.10;99.90;;;;;;5097184;28;19924;-86
2021/10/10 06:11:48;;;;;;;;;;;13.00;99.90;;;;;;5096920;28;19924;-86
2021/10/10 06:14:17;;;;;;;;;;;13.00;99.90;;;;;;5096911;28;20015;-86
2021/10/10 06:16:43;;;;;;;;;;;13.00;99.90;;;;;;5096887;28;19941;-86
2021/10/10 06:19:10;;;;;;;;;;;13.00;99.90;;;;;;5096997;28;20033;-86
2021/10/10 06:21:37;;;;;;;;;;;12.90;99.90;;;;;;5096928;28;19955;-85
2021/10/10 06:24:04;;;;;;;;;;;12.90;99.90;;;;;;5096804;28;20367;-86
2021/10/10 06:26:31;;;;;;;;;;;12.80;99.90;;;;;;5096682;28;19932;-86
2021/10/10 06:28:58;;;;;;;;;;;12.80;99.90;;;;;;5096794;28;19946;-86
2021/10/10 06:31:26;;;;;;;;;;;12.80;99.90;;;;;;5096595;28;20344;-86
2021/10/10 06:33:53;;;;;;;;;;;12.80;99.90;;;;;;5096683;28;19925;-85
2021/10/10 06:36:20;;;;;;;;;;;12.70;99.90;;;;;;5096635;28;19924;-86
2021/10/10 06:38:48;;;;;;;;;;;12.70;99.90;;;;;;5096516;28;19927;-85
2021/10/10 06:41:14;;;;;;;;;;;12.70;99.90;;;;;;5096355;28;20260;-84
2021/10/10 06:43:41;;;;;;;;;;;12.70;99.90;;;;;;5096407;28;19924;-85
2021/10/10 06:46:08;;;;;;;;;;;12.70;99.90;;;;;;5096502;28;19924;-86
2021/10/10 06:48:36;;;;;;;;;;;12.70;99.90;;;;;;5096494;28;19924;-85
2021/10/10 06:51:03;;;;;;;;;;;12.70;99.90;;;;;;5096250;28;19928;-85
2021/10/10 06:53:30;;;;;;;;;;;12.60;99.90;;;;;;5096198;28;19934;-86
2021/10/10 06:55:57;;;;;;;;;;;12.60;99.90;;;;;;5095571;28;19924;-85
2021/10/10 06:58:23;;;;;;;;;;;12.60;99.90;;;;;;5095488;28;20256;-83
2021/10/10 07:00:50;;;;;;;;;;;12.60;99.90;;;;;;5095525;28;20270;-84
2021/10/10 07:03:17;;;;;;;;;;;12.60;99.90;;;;;;5096060;28;19947;-83
2021/10/10 07:05:45;;;;;;;;;;;12.60;99.90;;;;;;5095976;28;19924;-83
2021/10/10 07:08:12;;;;;;;;;;;12.60;99.90;;;;;;5095832;28;19954;-81
2021/10/10 07:10:39;;;;;;;;;;;12.60;99.90;;;;;;5095932;28;20332;-80
2021/10/10 07:13:06;;;;;;;;;;;12.60;99.90;;;;;;5095867;28;19924;-80
2021/10/10 07:15:33;;;;;;;;;;;12.60;99.90;;;;;;5095612;28;19985;-80
2021/10/10 07:18:02;;;;;;;;;;;12.60;99.90;;;;;;5095641;28;19931;-81
2021/10/10 07:20:40;;;;;;;;;;;12.60;99.90;;;;;;5095651;28;20333;-80
2021/10/10 07:23:13;;;;;;;;;;;12.50;99.90;;;;;;5095794;28;19936;-80
2021/10/10 07:25:40;;;;;;;;;;;12.50;99.90;;;;;;5095802;28;19924;-82
2021/10/10 07:28:07;;;;;;;;;;;12.50;99.90;;;;;;5095627;28;19928;-80
2021/10/10 07:30:34;;;;;;;;;;;12.50;99.90;;;;;;5095519;28;20337;-80
2021/10/10 07:33:01;;;;;;;;;;;12.50;99.90;;;;;;5095614;28;20368;-81
2021/10/10 07:35:28;;;;;;;;;;;12.40;99.90;;;;;;5095410;28;19928;-81
2021/10/10 07:37:55;;;;;;;;;;;12.40;99.90;;;;;;5095329;28;20288;-80
2021/10/10 07:40:23;;;;;;;;;;;12.40;99.90;;;;;;5095188;28;19924;-80
2021/10/10 07:42:50;;;;;;;;;;;12.40;99.90;;;;;;5094439;28;19931;-80
2021/10/10 07:45:21;;;;;;;;;;;12.40;99.90;;;;;;5095444;28;19938;-81
2021/10/10 07:47:50;;;;;;;;;;;12.40;99.90;;;;;;5095468;28;19947;-81
2021/10/10 07:50:17;;;;;;;;;;;12.40;99.90;;;;;;5095406;28;20465;-81
2021/10/10 07:52:44;;;;;;;;;;;12.40;99.90;;;;;;5095453;28;20005;-83
2021/10/10 07:55:11;;;;;;;;;;;12.40;99.90;;;;;;5094783;28;20375;-80
2021/10/10 07:57:39;;;;;;;;;;;12.40;99.90;;;;;;5095280;28;19935;-80
2021/10/10 08:00:06;;;;;;;;;;;12.40;99.90;;;;;;5095111;28;20024;-81
2021/10/10 08:02:33;;;;;;;;;;;12.40;99.90;;;;;;5095105;28;19946;-81
2021/10/10 08:05:00;;;;;;;;;;;12.40;99.90;;;;;;5095128;28;19925;-81
2021/10/10 08:07:27;;;;;;;;;;;12.50;99.90;;;;;;5095017;28;20249;-81
2021/10/10 08:09:54;;;;;;;;;;;12.50;99.90;;;;;;5095032;28;19924;-80
2021/10/10 08:12:21;;;;;;;;;;;12.50;99.90;;;;;;5097782;28;20011;-81
2021/10/10 08:14:49;;;;;;;;;;;12.50;99.90;;;;;;5099218;28;19934;-81
2021/10/10 08:17:16;;;;;;;;;;;12.50;99.90;;;;;;5099129;28;20281;-80
2021/10/10 08:19:43;;;;;;;;;;;12.60;99.90;;;;;;5099083;28;20020;-82
2021/10/10 08:22:10;;;;;;;;;;;12.60;99.90;;;;;;5098350;28;19924;-80
2021/10/10 08:24:37;;;;;;;;;;;12.60;99.90;;;;;;5099263;28;19950;-80
2021/10/10 08:27:04;;;;;;;;;;;12.60;99.90;;;;;;5098918;28;19924;-80
2021/10/10 08:29:31;;;;;;;;;;;12.70;99.90;;;;;;5099033;28;19924;-81
2021/10/10 08:31:59;;;;;;;;;;;12.70;99.90;;;;;;5099071;28;20368;-81
2021/10/10 08:34:26;;;;;;;;;;;12.70;99.90;;;;;;5098856;28;19932;-80
2021/10/10 08:36:53;;;;;;;;;;;12.80;99.90;;;;;;5099091;28;19935;-81
2021/10/10 08:39:23;;;;;;;;;;;12.80;99.90;;;;;;5098793;28;19924;-81
2021/10/10 08:41:50;;;;;;;;;;;12.80;99.90;;;;;;5098661;28;20270;-81
2021/10/10 08:44:18;;;;;;;;;;;12.80;99.90;;;;;;5098689;28;20019;-82
2021/10/10 08:46:45;;;;;;;;;;;12.90;99.90;;;;;;5098549;28;20256;-82
2021/10/10 08:49:17;;;;;;;;;;;12.90;99.90;;;;;;5098606;28;19958;-81
2021/10/10 08:51:44;;;;;;;;;;;12.90;99.90;;;;;;5098485;28;19935;-82
2021/10/10 08:54:11;;;;;;;;;;;12.90;99.90;;;;;;5098404;28;19934;-81
2021/10/10 08:56:39;;;;;;;;;;;12.90;99.90;;;;;;5098397;28;19935;-80
2021/10/10 08:59:06;;;;;;;;;;;12.90;99.90;;;;;;5098340;28;19924;-81
2021/10/10 09:01:36;;;;;;;;;;;13.00;99.90;;;;;;5098215;28;19928;-81
2021/10/10 09:04:03;;;;;;;;;;;13.00;99.90;;;;;;5098278;28;19939;-81
2021/10/10 09:06:32;;;;;;;;;;;13.00;99.90;;;;;;5098390;28;20022;-80
2021/10/10 09:09:14;;;;;;;;;;;13.00;99.90;;;;;;5098251;28;20249;-81
2021/10/10 09:11:43;;;;;;;;;;;13.00;99.90;;;;;;5097506;28;19924;-82
2021/10/10 09:14:10;;;;;;;;;;;13.00;99.90;;;;;;5098331;28;19947;-80
2021/10/10 09:16:37;;;;;;;;;;;13.10;99.90;;;;;;5098019;28;19935;-81
2021/10/10 09:19:18;;;;;;;;;;;13.10;99.90;;;;;;5098082;28;19924;-80
2021/10/10 09:21:47;;;;;;;;;;;13.10;99.90;;;;;;5097768;28;19931;-81
2021/10/10 09:24:14;;;;;;;;;;;13.10;99.90;;;;;;5095463;28;19924;-80
2021/10/10 09:26:41;;;;;;;;;;;13.20;99.90;;;;;;5096047;28;19982;-81
2021/10/10 09:29:08;;;;;;;;;;;13.20;99.90;;;;;;5098121;28;19924;-81
2021/10/10 09:31:35;;;;;;;;;;;13.20;99.90;;;;;;5097693;28;19930;-82
2021/10/10 09:34:02;;;;;;;;;;;13.20;99.90;;;;;;5097703;28;19924;-81
2021/10/10 09:36:29;;;;;;;;;;;13.30;99.90;;;;;;5097786;28;19938;-83
2021/10/10 09:39:00;;;;;;;;;;;13.30;99.90;;;;;;5097564;28;20014;-82
2021/10/10 09:41:30;;;;;;;;;;;13.40;99.90;;;;;;5097490;28;19931;-81
2021/10/10 09:43:58;;;;;;;;;;;13.40;99.90;;;;;;5097655;28;19933;-81
2021/10/10 09:46:25;;;;;;;;;;;13.50;99.90;;;;;;5097692;28;19924;-82
2021/10/10 09:48:52;;;;;;;;;;;13.50;99.90;;;;;;5097573;28;19924;-83
2021/10/10 09:51:27;;;;;;;;;;;13.60;99.90;;;;;;5097388;28;19938;-82
2021/10/10 09:53:54;;;;;;;;;;;13.70;99.90;;;;;;5097529;28;19924;-84
2021/10/10 09:56:22;;;;;;;;;;;13.80;99.90;;;;;;5096940;28;19934;-83
2021/10/10 09:58:49;;;;;;;;;;;13.80;99.90;;;;;;5097321;28;19928;-81
2021/10/10 10:01:16;;;;;;;;;;;14.00;99.90;;;;;;5097369;28;19934;-82
2021/10/10 10:03:58;;;;;;;;;;;14.10;99.90;;;;;;5097290;28;20267;-80
2021/10/10 10:06:26;;;;;;;;;;;14.20;99.90;;;;;;5097329;28;19946;-80
2021/10/10 10:08:53;;;;;;;;;;;14.20;99.90;;;;;;5097425;28;19953;-78
2021/10/10 10:11:22;;;;;;;;;;;14.10;99.90;;;;;;5097171;28;20351;-81
2021/10/10 10:13:48;;;;;;;;;;;14.00;99.90;;;;;;5097084;28;19928;-79
2021/10/10 10:16:15;;;;;;;;;;;13.90;99.90;;;;;;5097172;28;19924;-80
2021/10/10 10:18:42;;;;;;;;;;;13.90;99.90;;;;;;5097016;28;19924;-78
2021/10/10 10:21:09;;;;;;;;;;;13.90;99.90;;;;;;5097004;28;19989;-79
2021/10/10 10:23:36;;;;;;;;;;;13.90;99.90;;;;;;5096915;28;19946;-78
2021/10/10 10:26:03;;;;;;;;;;;13.80;99.90;;;;;;5096779;28;19938;-80
2021/10/10 10:28:32;;;;;;;;;;;13.80;99.90;;;;;;5096795;28;19924;-81
2021/10/10 10:30:59;;;;;;;;;;;13.70;99.90;;;;;;5096627;28;19935;-79
2021/10/10 10:33:29;;;;;;;;;;;13.70;99.90;;;;;;5096661;28;19950;-79
2021/10/10 10:35:55;;;;;;;;;;;13.80;99.90;;;;;;5095472;28;19924;-80
2021/10/10 10:38:38;;;;;;;;;;;13.80;99.90;;;;;;5096639;28;19962;-78
2021/10/10 10:41:05;;;;;;;;;;;13.80;99.90;;;;;;5096400;28;20340;-79
2021/10/10 10:43:35;;;;;;;;;;;13.80;99.90;;;;;;5096303;28;19989;-81
2021/10/10 10:46:06;;;;;;;;;;;13.80;99.90;;;;;;5096280;28;19951;-79
2021/10/10 10:48:36;;;;;;;;;;;13.80;99.90;;;;;;5096335;28;19927;-81
2021/10/10 10:51:26;;;;;;;;;;;13.90;99.90;;;;;;5096344;28;19928;-83
2021/10/10 10:53:52;;;;;;;;;;;14.00;99.90;;;;;;5096162;28;19930;-83
2021/10/10 10:56:26;;;;;;;;;;;14.00;99.90;;;;;;5095766;28;19971;-84
2021/10/10 10:58:58;;;;;;;;;;;14.00;99.90;;;;;;5096124;28;19924;-84
2021/10/10 11:01:25;;;;;;;;;;;14.00;99.90;;;;;;5096233;28;19924;-83
2021/10/10 11:03:51;;;;;;;;;;;14.10;99.90;;;;;;5096120;28;19924;-83
2021/10/10 11:06:18;;;;;;;;;;;14.10;99.90;;;;;;5095896;28;20316;-84
2021/10/10 11:08:45;;;;;;;;;;;14.10;99.90;;;;;;5095890;28;19924;-84
2021/10/10 11:11:15;;;;;;;;;;;14.10;99.90;;;;;;5095895;28;19928;-81
2021/10/10 11:13:42;;;;;;;;;;;14.10;99.90;;;;;;5096028;28;19989;-81
2021/10/10 11:16:10;;;;;;;;;;;14.10;99.90;;;;;;5095890;28;19928;-81
2021/10/10 11:18:37;;;;;;;;;;;14.20;99.90;;;;;;5095790;28;19935;-82
2021/10/10 11:21:05;;;;;;;;;;;14.20;99.90;;;;;;5095577;28;19924;-81
2021/10/10 11:23:32;;;;;;;;;;;14.20;99.90;;;;;;5095759;28;19925;-80
2021/10/10 11:26:01;;;;;;;;;;;14.20;99.90;;;;;;5095825;28;19924;-83
2021/10/10 11:28:35;;;;;;;;;;;14.10;99.90;;;;;;5095733;28;19924;-81
2021/10/10 11:31:06;;;;;;;;;;;14.10;99.90;;;;;;5095600;28;19947;-81
2021/10/10 11:33:36;;;;;;;;;;;14.10;99.90;;;;;;5095446;28;19939;-81
2021/10/10 11:36:03;;;;;;;;;;;14.10;99.90;;;;;;5095410;28;19928;-84
2021/10/10 11:38:30;;;;;;;;;;;14.10;99.90;;;;;;5095594;28;19938;-82
2021/10/10 11:41:00;;;;;;;;;;;14.10;99.90;;;;;;5095342;28;19924;-82
2021/10/10 11:43:28;;;;;;;;;;;14.10;99.90;;;;;;5095218;28;20382;-82
2021/10/10 11:45:56;;;;;;;;;;;14.20;99.90;;;;;;5095002;28;19924;-82
2021/10/10 11:48:31;;;;;;;;;;;14.20;99.90;;;;;;5095320;28;19935;-82
2021/10/10 11:51:00;;;;;;;;;;;14.30;99.90;;;;;;5095534;28;19924;-82
2021/10/10 11:53:40;;;;;;;;;;;14.40;99.90;;;;;;5095262;28;19924;-82
2021/10/10 11:56:09;;;;;;;;;;;14.50;99.90;;;;;;5095437;28;20015;-89
2021/10/10 11:58:39;;;;;;;;;;;14.50;99.90;;;;;;5101101;28;20189;-94
2021/10/10 12:01:09;;;;;;;;;;;14.60;99.90;;;;;;5098733;28;19946;-85
2021/10/10 12:03:36;;;;;;;;;;;14.70;99.90;;;;;;5095551;28;19935;-89
2021/10/10 12:06:05;;;;;;;;;;;14.70;99.90;;;;;;5095547;28;19928;-90
2021/10/10 12:08:33;;;;;;;;;;;14.80;99.90;;;;;;5095432;28;20373;-90
2021/10/10 12:11:00;;;;;;;;;;;14.80;99.90;;;;;;5095563;28;19939;-90
2021/10/10 12:13:30;;;;;;;;;;;14.80;99.90;;;;;;5094364;28;20330;-90
2021/10/10 12:16:05;;;;;;;;;;;14.70;99.90;;;;;;5095138;28;19924;-89
2021/10/10 12:18:33;;;;;;;;;;;14.80;99.90;;;;;;5095534;28;20308;-90
2021/10/10 12:21:20;;;;;;;;;;;14.70;99.90;;;;;;5095534;28;20030;-90
2021/10/10 12:23:47;;;;;;;;;;;14.70;99.90;;;;;;5095341;28;20267;-89
2021/10/10 12:26:13;;;;;;;;;;;14.60;99.90;;;;;;5095066;28;20027;-90
2021/10/10 12:28:42;;;;;;;;;;;14.60;99.90;;;;;;5095459;28;19923;-89
2021/10/10 12:31:12;;;;;;;;;;;14.60;99.90;;;;;;5095606;28;19935;-90
2021/10/10 12:33:49;;;;;;;;;;;14.60;99.90;;;;;;5094234;28;20263;-89
2021/10/10 12:36:16;;;;;;;;;;;14.60;99.90;;;;;;5095290;28;20009;-89
2021/10/10 12:38:45;;;;;;;;;;;14.60;99.90;;;;;;5095167;28;19935;-89
2021/10/10 12:41:34;;;;;;;;;;;14.60;99.90;;;;;;5095187;28;19928;-89
2021/10/10 12:44:14;;;;;;;;;;;14.60;99.90;;;;;;5089214;28;19924;-89
2021/10/10 12:46:47;;;;;;;;;;;14.60;99.90;;;;;;5095072;28;19931;-89
2021/10/10 12:49:14;;;;;;;;;;;14.70;99.90;;;;;;5094705;28;20370;-89
2021/10/10 12:51:50;;;;;;;;;;;14.70;99.90;;;;;;5094997;28;19962;-89
2021/10/10 12:54:19;;;;;;;;;;;14.60;99.90;;;;;;5094776;28;19924;-88
2021/10/10 12:57:07;;;;;;;;;;;14.60;99.90;;;;;;5094933;28;19935;-89
2021/10/10 12:59:35;;;;;;;;;;;14.60;99.90;;;;;;5098030;28;19924;-90
2021/10/10 13:02:02;;;;;;;;;;;14.70;99.90;;;;;;5098549;28;19935;-89
2021/10/10 13:04:37;;;;;;;;;;;14.70;99.90;;;;;;5098698;28;19935;-89
2021/10/10 13:07:04;;;;;;;;;;;14.80;99.90;;;;;;5098949;28;20336;-89
2021/10/10 13:10:02;;;;;;;;;;;14.90;99.90;;;;;;5099120;28;19924;-89
2021/10/10 13:12:32;;;;;;;;;;;15.00;99.90;;;;;;5096634;28;20356;-89
2021/10/10 13:14:58;;;;;;;;;;;14.90;99.90;;;;;;5098482;28;20447;-89
2021/10/10 13:17:25;;;;;;;;;;;14.90;99.90;;;;;;5098624;28;19971;-89
2021/10/10 13:19:52;;;;;;;;;;;14.90;99.90;;;;;;5098472;28;19924;-90
2021/10/10 13:22:19;;;;;;;;;;;14.90;99.90;;;;;;5098342;28;19930;-89
2021/10/10 13:24:51;;;;;;;;;;;14.90;99.90;;;;;;5098521;28;20340;-89
2021/10/10 13:27:17;;;;;;;;;;;14.90;99.90;;;;;;5098215;28;19924;-89
2021/10/10 13:29:44;;;;;;;;;;;14.80;99.90;;;;;;5098620;28;19924;-89
2021/10/10 13:32:11;;;;;;;;;;;14.80;99.90;;;;;;5098162;28;19938;-89
2021/10/10 13:34:38;;;;;;;;;;;14.70;99.90;;;;;;5098271;28;19924;-90
2021/10/10 13:37:05;;;;;;;;;;;14.70;99.90;;;;;;5098154;28;19924;-89
2021/10/10 13:39:32;;;;;;;;;;;14.70;99.90;;;;;;5098137;28;19979;-89
2021/10/10 13:42:00;;;;;;;;;;;14.70;99.90;;;;;;5097813;28;19924;-89
2021/10/10 13:44:27;;;;;;;;;;;14.60;99.90;;;;;;5098064;28;19989;-89
2021/10/10 13:46:57;;;;;;;;;;;14.60;99.90;;;;;;5097788;28;19932;-89
2021/10/10 13:49:23;;;;;;;;;;;14.60;99.90;;;;;;5097942;28;19924;-89
2021/10/10 13:51:50;;;;;;;;;;;14.50;99.90;;;;;;5097900;28;19950;-90
2021/10/10 13:54:20;;;;;;;;;;;14.50;99.90;;;;;;5097650;28;19935;-89
2021/10/10 13:56:50;;;;;;;;;;;14.50;99.90;;;;;;5097772;28;20401;-88
2021/10/10 13:59:18;;;;;;;;;;;14.50;99.90;;;;;;5097639;28;20006;-89
2021/10/10 14:01:46;;;;;;;;;;;14.50;99.90;;;;;;5097870;28;19974;-89
2021/10/10 14:04:13;;;;;;;;;;;14.50;99.90;;;;;;5097653;28;20355;-89
2021/10/10 14:06:51;;;;;;;;;;;14.50;99.90;;;;;;5097542;28;19979;-89
2021/10/10 14:09:19;;;;;;;;;;;14.50;99.90;;;;;;5097536;28;20019;-89
2021/10/10 14:11:46;;;;;;;;;;;14.50;99.90;;;;;;5097377;28;19924;-90
2021/10/10 14:14:13;;;;;;;;;;;14.50;99.90;;;;;;5097353;28;19977;-89
2021/10/10 14:16:41;;;;;;;;;;;14.40;99.90;;;;;;5097098;28;19924;-89
2021/10/10 14:19:13;;;;;;;;;;;14.40;99.90;;;;;;5097238;28;19924;-89
2021/10/10 14:21:42;;;;;;;;;;;14.40;99.90;;;;;;5097268;28;19978;-89
2021/10/10 14:24:09;;;;;;;;;;;14.30;99.90;;;;;;5096670;28;20333;-90